Time;durP1;ratioP1;P1;durP2;ratioP2;P2;SDS_P1;SDS_P2;PMS_P1;PMS_P2;Temp;Humidity;BMP_temperature;BMP_pressure;BME280_temperature;BME280_humidity;BME280_pressure;Samples;Min_cycle;Max_cycle;Signal;HPM_P1;HPM_P2
2020/12/25 00:01:32;;;;;;;1.92;1.83;;;2.90;99.90;;;;;;482864;241;27458;-72
2020/12/25 00:03:33;;;;;;;1.87;1.77;;;2.90;99.90;;;;;;478731;241;28054;-73
2020/12/25 00:05:35;;;;;;;2.17;2.05;;;2.90;99.90;;;;;;481061;241;28743;-72
2020/12/25 00:07:36;;;;;;;2.85;2.30;;;2.80;99.90;;;;;;481643;241;28026;-74
2020/12/25 00:09:37;;;;;;;3.08;2.20;;;2.90;99.90;;;;;;480019;245;28059;-74
2020/12/25 00:11:38;;;;;;;2.75;2.53;;;2.90;99.90;;;;;;479886;245;27427;-72
2020/12/25 00:13:40;;;;;;;2.85;2.08;;;2.90;99.90;;;;;;479885;245;27530;-73
2020/12/25 00:15:41;;;;;;;2.90;2.60;;;2.90;99.90;;;;;;480022;245;27552;-72
2020/12/25 00:17:42;;;;;;;2.25;2.10;;;2.90;99.90;;;;;;480046;245;27606;-73
2020/12/25 00:19:43;;;;;;;2.92;2.60;;;2.90;99.90;;;;;;479969;245;27526;-72
2020/12/25 00:21:45;;;;;;;3.35;3.08;;;2.90;99.90;;;;;;480009;245;27582;-72
2020/12/25 00:23:46;;;;;;;3.00;2.30;;;2.80;99.90;;;;;;479846;245;27558;-72
2020/12/25 00:25:47;;;;;;;2.83;2.53;;;2.90;99.90;;;;;;479937;245;27566;-71
2020/12/25 00:27:48;;;;;;;3.20;2.40;;;2.90;99.90;;;;;;480038;245;27458;-72
2020/12/25 00:29:50;;;;;;;2.30;2.20;;;2.90;99.90;;;;;;480093;245;27599;-74
2020/12/25 00:31:51;;;;;;;2.83;2.62;;;3.00;99.90;;;;;;480052;245;28086;-72
2020/12/25 00:33:52;;;;;;;5.10;3.80;;;3.10;99.90;;;;;;480106;245;28016;-73
2020/12/25 00:35:53;;;;;;;2.70;2.50;;;3.10;99.90;;;;;;480101;245;28979;-72
2020/12/25 00:37:55;;;;;;;4.60;2.97;;;3.00;99.90;;;;;;480202;245;29108;-71
2020/12/25 00:39:56;;;;;;;3.67;2.60;;;3.00;99.90;;;;;;480193;245;27538;-75
2020/12/25 00:41:57;;;;;;;3.15;2.95;;;3.00;99.90;;;;;;480168;245;27586;-72
2020/12/25 00:43:58;;;;;;;4.37;3.05;;;3.00;99.90;;;;;;480217;245;27546;-72
2020/12/25 00:46:00;;;;;;;2.92;2.72;;;3.00;99.90;;;;;;480191;245;27563;-72
2020/12/25 00:48:01;;;;;;;3.08;2.80;;;3.00;99.90;;;;;;480140;245;27558;-72
2020/12/25 00:50:02;;;;;;;3.20;2.90;;;3.10;99.90;;;;;;480154;245;27557;-75
2020/12/25 00:52:03;;;;;;;5.57;2.97;;;3.00;99.90;;;;;;480087;245;27511;-71
2020/12/25 00:54:05;;;;;;;3.60;3.28;;;3.00;99.90;;;;;;479790;245;27903;-74
2020/12/25 00:56:06;;;;;;;3.10;2.80;;;3.00;99.90;;;;;;480029;245;27614;-73
2020/12/25 00:58:07;;;;;;;4.20;3.28;;;3.10;99.90;;;;;;480014;245;27535;-72
2020/12/25 01:00:08;;;;;;;5.43;4.10;;;3.00;99.90;;;;;;479922;245;27995;-72
2020/12/25 01:02:10;;;;;;;4.45;3.62;;;3.00;99.90;;;;;;480010;245;28139;-73
2020/12/25 01:04:11;;;;;;;5.65;3.75;;;3.00;99.90;;;;;;479952;245;28035;-71
2020/12/25 01:06:12;;;;;;;3.45;3.00;;;3.00;99.90;;;;;;480059;245;29175;-73
2020/12/25 01:08:13;;;;;;;5.53;3.37;;;3.10;99.90;;;;;;480073;245;27446;-73
2020/12/25 01:10:15;;;;;;;6.05;3.67;;;3.10;99.90;;;;;;479957;245;27538;-73
2020/12/25 01:12:16;;;;;;;3.33;3.00;;;3.10;99.90;;;;;;480017;245;27617;-73
2020/12/25 01:14:17;;;;;;;3.47;3.17;;;3.10;99.90;;;;;;480062;245;27654;-72
2020/12/25 01:16:19;;;;;;;3.33;2.80;;;3.10;99.90;;;;;;480028;245;27606;-74
2020/12/25 01:18:20;;;;;;;3.45;3.00;;;3.10;99.90;;;;;;480032;245;27506;-72
2020/12/25 01:20:21;;;;;;;4.50;3.45;;;3.20;99.90;;;;;;479981;245;27659;-72
2020/12/25 01:22:22;;;;;;;5.32;3.47;;;3.20;99.90;;;;;;480048;245;27553;-73
2020/12/25 01:24:23;;;;;;;3.53;3.08;;;3.20;99.90;;;;;;480067;245;27511;-73
2020/12/25 01:26:25;;;;;;;3.45;3.10;;;3.20;99.90;;;;;;479955;245;27585;-72
2020/12/25 01:28:26;;;;;;;3.35;3.05;;;3.20;99.90;;;;;;480070;245;27861;-72
2020/12/25 01:30:27;;;;;;;7.15;3.17;;;3.10;99.90;;;;;;480169;245;28105;-72
2020/12/25 01:32:34;;;;;;;4.90;3.40;;;3.10;99.90;;;;;;480159;245;28046;-75
2020/12/25 01:34:30;;;;;;;5.30;3.70;;;3.10;99.90;;;;;;479763;247;29131;-72
2020/12/25 01:36:31;;;;;;;4.12;3.22;;;3.10;99.90;;;;;;479769;243;27609;-73
2020/12/25 01:38:32;;;;;;;4.22;3.17;;;3.10;99.90;;;;;;479544;245;27444;-72
2020/12/25 01:40:33;;;;;;;5.72;3.50;;;3.10;99.90;;;;;;480001;247;27553;-72
2020/12/25 01:42:35;;;;;;;6.90;3.50;;;3.10;99.90;;;;;;480037;245;27562;-74
2020/12/25 01:44:36;;;;;;;4.37;3.12;;;3.20;99.90;;;;;;480071;245;27503;-73
2020/12/25 01:46:37;;;;;;;6.72;3.75;;;3.20;99.90;;;;;;480071;245;27538;-73
2020/12/25 01:48:38;;;;;;;3.70;3.37;;;3.20;99.90;;;;;;479990;245;27566;-73
2020/12/25 01:50:40;;;;;;;4.78;3.72;;;3.20;99.90;;;;;;479992;245;27618;-72
2020/12/25 01:52:41;;;;;;;4.20;3.30;;;3.20;99.90;;;;;;479281;243;27531;-73
2020/12/25 01:54:42;;;;;;;5.32;3.65;;;3.20;99.90;;;;;;479971;245;27513;-72
2020/12/25 01:56:43;;;;;;;3.90;3.60;;;3.20;99.90;;;;;;480042;245;27622;-74
2020/12/25 01:58:45;;;;;;;4.72;3.95;;;3.30;99.90;;;;;;480061;245;28162;-74
2020/12/25 02:00:46;;;;;;;9.63;4.40;;;3.20;99.90;;;;;;479957;245;27970;-72
2020/12/25 02:02:47;;;;;;;5.62;3.87;;;3.30;99.90;;;;;;479945;245;27989;-73
2020/12/25 02:04:48;;;;;;;6.95;3.65;;;3.20;99.90;;;;;;479947;245;27515;-72
2020/12/25 02:06:50;;;;;;;4.90;3.65;;;3.20;99.90;;;;;;480018;245;27552;-74
2020/12/25 02:08:51;;;;;;;9.15;3.60;;;3.20;99.90;;;;;;480061;245;27571;-74
2020/12/25 02:10:52;;;;;;;7.60;3.80;;;3.20;99.90;;;;;;479966;245;27553;-73
2020/12/25 02:12:53;;;;;;;6.12;4.40;;;3.20;99.90;;;;;;480065;245;27530;-72
2020/12/25 02:14:55;;;;;;;4.95;4.25;;;3.20;99.90;;;;;;480042;245;27430;-72
2020/12/25 02:16:56;;;;;;;5.05;4.10;;;3.10;99.90;;;;;;480044;245;28062;-75
2020/12/25 02:18:57;;;;;;;8.82;4.20;;;3.10;99.90;;;;;;480103;245;27594;-73
2020/12/25 02:20:58;;;;;;;8.07;4.62;;;3.20;99.90;;;;;;480052;245;27639;-73
2020/12/25 02:23:00;;;;;;;7.05;4.30;;;3.20;99.90;;;;;;479964;245;27562;-72
2020/12/25 02:25:01;;;;;;;6.12;3.85;;;3.10;99.90;;;;;;480050;245;28091;-73
2020/12/25 02:27:02;;;;;;;4.62;3.60;;;3.10;99.90;;;;;;479999;245;28029;-72
2020/12/25 02:29:03;;;;;;;6.30;3.95;;;3.10;99.90;;;;;;480088;245;28109;-73
2020/12/25 02:31:05;;;;;;;7.47;3.97;;;3.10;99.90;;;;;;480021;245;28766;-74
2020/12/25 02:33:06;;;;;;;6.00;3.90;;;3.10;99.90;;;;;;479978;245;28105;-72
2020/12/25 02:35:07;;;;;;;7.72;4.03;;;3.10;99.90;;;;;;480097;245;27566;-74
2020/12/25 02:37:08;;;;;;;7.68;3.87;;;3.00;99.90;;;;;;480075;245;27503;-72
2020/12/25 02:39:10;;;;;;;4.57;3.65;;;3.10;99.90;;;;;;480014;245;27630;-72
2020/12/25 02:41:11;;;;;;;5.72;4.03;;;3.10;99.90;;;;;;480003;245;27526;-74
2020/12/25 02:43:12;;;;;;;6.15;4.45;;;3.00;99.90;;;;;;480110;245;27534;-73
2020/12/25 02:45:13;;;;;;;6.18;3.87;;;3.00;99.90;;;;;;480129;245;27609;-75
2020/12/25 02:47:15;;;;;;;6.05;4.30;;;3.10;99.90;;;;;;480109;245;27563;-72
2020/12/25 02:49:16;;;;;;;10.90;4.25;;;3.00;99.90;;;;;;480129;245;27633;-72
2020/12/25 02:51:17;;;;;;;6.15;4.20;;;3.10;99.90;;;;;;480179;245;27547;-72
2020/12/25 02:53:18;;;;;;;10.93;4.00;;;3.10;99.90;;;;;;480255;245;27931;-72
2020/12/25 02:55:20;;;;;;;5.20;3.75;;;3.10;99.90;;;;;;480145;245;28082;-74
2020/12/25 02:57:21;;;;;;;4.40;3.60;;;3.20;99.90;;;;;;480188;245;28377;-72
2020/12/25 02:59:22;;;;;;;7.15;4.00;;;3.10;99.90;;;;;;480131;245;28158;-73
2020/12/25 03:01:23;;;;;;;12.52;4.43;;;3.10;99.90;;;;;;479942;245;27581;-74
2020/12/25 03:03:25;;;;;;;7.32;4.22;;;3.10;99.90;;;;;;480147;245;27516;-72
2020/12/25 03:05:26;;;;;;;4.28;3.87;;;3.10;99.90;;;;;;480051;247;27643;-73
2020/12/25 03:07:27;;;;;;;8.00;4.10;;;3.10;99.90;;;;;;479995;245;27555;-72
2020/12/25 03:09:28;;;;;;;4.25;3.67;;;3.00;99.90;;;;;;480045;245;27585;-73
2020/12/25 03:11:30;;;;;;;5.00;4.10;;;3.00;99.90;;;;;;479947;247;27556;-73
2020/12/25 03:13:31;;;;;;;5.68;3.85;;;3.00;99.90;;;;;;480058;245;27860;-72
2020/12/25 03:15:32;;;;;;;8.48;4.12;;;3.10;99.90;;;;;;480063;245;27578;-72
2020/12/25 03:17:33;;;;;;;5.75;4.45;;;3.00;99.90;;;;;;479975;245;27549;-72
2020/12/25 03:19:35;;;;;;;8.23;4.87;;;3.00;99.90;;;;;;480043;245;28023;-72
2020/12/25 03:21:36;;;;;;;7.78;4.25;;;3.00;99.90;;;;;;479953;245;28021;-72
2020/12/25 03:23:37;;;;;;;6.78;4.80;;;3.00;99.90;;;;;;479952;245;28005;-72
2020/12/25 03:25:38;;;;;;;7.47;3.95;;;3.00;99.90;;;;;;479980;245;27998;-73
2020/12/25 03:27:40;;;;;;;5.97;3.90;;;3.00;99.90;;;;;;479992;245;27566;-75
2020/12/25 03:29:41;;;;;;;6.18;4.80;;;3.10;99.90;;;;;;479999;245;27537;-73
2020/12/25 03:31:42;;;;;;;6.68;4.15;;;3.00;99.90;;;;;;480058;245;27543;-73
2020/12/25 03:33:43;;;;;;;6.95;4.62;;;3.00;99.90;;;;;;480074;245;27533;-73
2020/12/25 03:35:45;;;;;;;6.62;4.10;;;3.00;99.90;;;;;;480102;245;27533;-75
2020/12/25 03:37:46;;;;;;;6.03;4.43;;;3.00;99.90;;;;;;480118;245;27554;-74
2020/12/25 03:39:47;;;;;;;7.12;4.60;;;3.00;99.90;;;;;;480014;245;27541;-73
2020/12/25 03:41:48;;;;;;;6.20;4.30;;;2.90;99.90;;;;;;480014;245;27529;-72
2020/12/25 03:43:50;;;;;;;7.80;4.55;;;2.90;99.90;;;;;;480152;245;27527;-72
2020/12/25 03:45:51;;;;;;;6.25;4.28;;;2.80;99.90;;;;;;480110;245;27538;-74
2020/12/25 03:47:52;;;;;;;6.57;4.45;;;2.80;99.90;;;;;;480070;245;27988;-72
2020/12/25 03:49:53;;;;;;;8.32;5.50;;;2.80;99.90;;;;;;480126;245;28082;-73
2020/12/25 03:51:55;;;;;;;7.90;3.78;;;2.80;99.90;;;;;;479971;245;28125;-72
2020/12/25 03:53:56;;;;;;;5.75;4.15;;;2.70;99.90;;;;;;477862;243;28034;-72
2020/12/25 03:55:57;;;;;;;6.50;4.65;;;2.60;99.90;;;;;;479291;246;27549;-72
2020/12/25 03:57:58;;;;;;;6.30;4.30;;;2.60;99.90;;;;;;479231;246;27532;-72
2020/12/25 04:00:00;;;;;;;6.30;4.82;;;2.50;99.90;;;;;;479229;246;27556;-73
2020/12/25 04:02:01;;;;;;;8.40;4.97;;;2.60;99.90;;;;;;479164;246;27541;-73
2020/12/25 04:04:02;;;;;;;5.97;4.18;;;2.60;99.90;;;;;;479287;246;27595;-74
2020/12/25 04:06:03;;;;;;;6.05;4.00;;;2.70;99.90;;;;;;479276;246;27635;-72
2020/12/25 04:08:05;;;;;;;7.87;4.72;;;2.70;99.90;;;;;;479204;246;27540;-72
2020/12/25 04:10:06;;;;;;;6.25;4.18;;;2.80;99.90;;;;;;478788;243;27620;-74
2020/12/25 04:12:07;;;;;;;7.28;4.75;;;2.90;99.90;;;;;;480021;245;27499;-73
2020/12/25 04:14:08;;;;;;;9.02;4.43;;;2.90;99.90;;;;;;480015;245;27617;-74
2020/12/25 04:16:10;;;;;;;6.07;4.22;;;2.90;99.90;;;;;;480082;245;29127;-72
2020/12/25 04:18:11;;;;;;;7.72;4.03;;;3.00;99.90;;;;;;480046;245;27994;-73
2020/12/25 04:20:12;;;;;;;8.25;4.30;;;3.00;99.90;;;;;;479903;245;27988;-73
2020/12/25 04:22:13;;;;;;;9.68;4.60;;;3.00;99.90;;;;;;480104;245;28066;-72
2020/12/25 04:24:15;;;;;;;7.57;4.62;;;3.00;99.90;;;;;;480156;245;27555;-73
2020/12/25 04:26:16;;;;;;;8.02;4.40;;;3.00;99.90;;;;;;480151;245;27499;-72
2020/12/25 04:28:17;;;;;;;7.07;5.10;;;3.00;99.90;;;;;;480217;245;27528;-72
2020/12/25 04:30:18;;;;;;;9.40;4.28;;;3.10;99.90;;;;;;480195;245;27563;-72
2020/12/25 04:32:20;;;;;;;5.32;4.30;;;3.10;99.90;;;;;;480249;245;27490;-73
2020/12/25 04:34:21;;;;;;;6.50;5.03;;;3.00;99.90;;;;;;480253;245;27602;-73
2020/12/25 04:36:22;;;;;;;6.78;4.32;;;3.10;99.90;;;;;;480184;245;27589;-73
2020/12/25 04:38:23;;;;;;;8.50;4.72;;;3.00;99.90;;;;;;480239;245;28003;-72
2020/12/25 04:40:25;;;;;;;4.90;4.10;;;3.00;99.90;;;;;;480192;245;27610;-75
2020/12/25 04:42:26;;;;;;;7.20;4.57;;;3.10;99.90;;;;;;480155;245;27499;-72
2020/12/25 04:44:27;;;;;;;6.07;4.50;;;3.00;99.90;;;;;;479506;243;27970;-73
2020/12/25 04:46:28;;;;;;;7.22;4.47;;;3.00;99.90;;;;;;479817;247;27948;-73
2020/12/25 04:48:30;;;;;;;7.50;4.95;;;3.10;99.90;;;;;;479981;245;28130;-72
2020/12/25 04:50:31;;;;;;;5.62;4.40;;;3.00;99.90;;;;;;480008;245;28082;-73
2020/12/25 04:52:32;;;;;;;4.75;4.07;;;3.10;99.90;;;;;;480099;245;27590;-72
2020/12/25 04:54:33;;;;;;;6.85;4.28;;;3.00;99.90;;;;;;480053;245;27593;-75
2020/12/25 04:56:35;;;;;;;9.60;4.45;;;3.00;99.90;;;;;;480106;245;27438;-72
2020/12/25 04:58:36;;;;;;;5.72;4.05;;;3.00;99.90;;;;;;479936;245;27535;-72
2020/12/25 05:00:37;;;;;;;7.70;4.65;;;3.00;99.90;;;;;;480004;245;27526;-72
2020/12/25 05:02:38;;;;;;;6.53;4.40;;;3.00;99.90;;;;;;480078;245;27620;-72
2020/12/25 05:04:40;;;;;;;6.85;4.35;;;3.00;99.90;;;;;;479992;245;27586;-74
2020/12/25 05:06:41;;;;;;;6.90;4.25;;;3.00;99.90;;;;;;480053;245;27905;-74
2020/12/25 05:08:42;;;;;;;7.45;5.00;;;3.00;99.90;;;;;;480022;245;27462;-73
2020/12/25 05:10:43;;;;;;;10.55;5.25;;;2.90;99.90;;;;;;479904;245;27526;-73
2020/12/25 05:12:45;;;;;;;6.60;4.82;;;2.90;99.90;;;;;;480002;245;27953;-72
2020/12/25 05:14:46;;;;;;;6.68;4.50;;;2.90;99.90;;;;;;480045;245;28049;-74
2020/12/25 05:16:47;;;;;;;7.93;4.78;;;2.90;99.90;;;;;;480012;245;27977;-74
2020/12/25 05:18:48;;;;;;;8.38;5.12;;;2.90;99.90;;;;;;480021;245;28021;-73
2020/12/25 05:20:50;;;;;;;6.75;4.90;;;2.90;99.90;;;;;;479894;245;27531;-72
2020/12/25 05:22:51;;;;;;;7.87;5.30;;;2.90;99.90;;;;;;480060;245;27483;-73
2020/12/25 05:24:52;;;;;;;8.10;4.72;;;2.90;99.90;;;;;;480013;245;27457;-74
2020/12/25 05:26:53;;;;;;;8.00;5.10;;;3.00;99.90;;;;;;479972;245;27574;-75
2020/12/25 05:28:55;;;;;;;8.90;5.62;;;3.00;99.90;;;;;;480066;245;27554;-74
2020/12/25 05:30:56;;;;;;;12.07;5.28;;;3.00;99.90;;;;;;479962;242;27606;-73
2020/12/25 05:32:57;;;;;;;7.40;5.22;;;3.00;99.90;;;;;;479993;242;27471;-77
2020/12/25 05:34:59;;;;;;;8.35;4.82;;;3.10;99.90;;;;;;480044;245;27626;-72
2020/12/25 05:37:00;;;;;;;8.77;5.03;;;3.00;99.90;;;;;;480019;245;27515;-75
2020/12/25 05:39:01;;;;;;;6.65;4.62;;;3.10;99.90;;;;;;480072;245;27634;-74
2020/12/25 05:41:02;;;;;;;6.70;5.15;;;3.10;99.90;;;;;;480024;245;28022;-72
2020/12/25 05:43:03;;;;;;;6.95;4.80;;;3.10;99.90;;;;;;480040;245;28045;-75
2020/12/25 05:45:05;;;;;;;7.90;5.00;;;3.00;99.90;;;;;;480113;245;28148;-72
2020/12/25 05:47:06;;;;;;;6.90;5.10;;;3.00;99.90;;;;;;480099;245;28044;-73
2020/12/25 05:49:07;;;;;;;7.95;5.15;;;3.00;99.90;;;;;;480021;245;27609;-76
2020/12/25 05:51:08;;;;;;;9.43;5.30;;;3.00;99.90;;;;;;480156;245;27531;-72
2020/12/25 05:53:10;;;;;;;7.82;5.55;;;3.10;99.90;;;;;;480233;245;27551;-75
2020/12/25 05:55:11;;;;;;;7.82;5.50;;;3.00;99.90;;;;;;480239;245;27483;-72
2020/12/25 05:57:12;;;;;;;9.57;5.55;;;3.10;99.90;;;;;;480311;245;27535;-73
2020/12/25 05:59:13;;;;;;;9.27;5.18;;;3.10;99.90;;;;;;480239;245;27637;-73
2020/12/25 06:01:15;;;;;;;7.62;5.85;;;3.10;99.90;;;;;;480267;245;27503;-72
2020/12/25 06:03:16;;;;;;;7.82;5.53;;;3.10;99.90;;;;;;480294;245;27553;-72
2020/12/25 06:05:17;;;;;;;7.75;4.65;;;3.10;99.90;;;;;;480236;245;27484;-72
2020/12/25 06:07:18;;;;;;;10.07;5.28;;;3.20;99.90;;;;;;480280;245;27551;-73
2020/12/25 06:09:20;;;;;;;10.40;4.65;;;3.20;99.90;;;;;;480242;245;28082;-75
2020/12/25 06:11:21;;;;;;;8.68;6.10;;;3.20;99.90;;;;;;480135;245;27927;-73
2020/12/25 06:13:22;;;;;;;6.47;5.72;;;3.20;99.90;;;;;;480170;245;28006;-74
2020/12/25 06:15:23;;;;;;;7.30;5.30;;;3.30;99.90;;;;;;480085;245;27496;-73
2020/12/25 06:17:25;;;;;;;9.88;5.30;;;3.30;99.90;;;;;;479991;245;27543;-73
2020/12/25 06:19:26;;;;;;;7.03;5.62;;;3.30;99.90;;;;;;480069;245;27626;-75
2020/12/25 06:21:27;;;;;;;9.02;5.50;;;3.30;99.90;;;;;;479951;245;27542;-72
2020/12/25 06:23:28;;;;;;;7.68;6.20;;;3.30;99.90;;;;;;479979;245;27578;-75
2020/12/25 06:25:30;;;;;;;10.45;6.03;;;3.30;99.90;;;;;;480026;245;27550;-73
2020/12/25 06:27:31;;;;;;;10.00;5.85;;;3.20;99.90;;;;;;480035;245;27614;-73
2020/12/25 06:29:32;;;;;;;8.48;5.82;;;3.20;99.90;;;;;;480074;245;27553;-73
2020/12/25 06:31:34;;;;;;;14.25;5.97;;;3.20;99.90;;;;;;479947;245;27554;-72
2020/12/25 06:33:35;;;;;;;6.28;5.68;;;3.20;99.90;;;;;;480099;245;28024;-77
2020/12/25 06:35:36;;;;;;;10.55;6.20;;;3.20;99.90;;;;;;480074;245;28206;-72
2020/12/25 06:37:37;;;;;;;9.50;6.00;;;3.20;99.90;;;;;;479990;245;28026;-72
2020/12/25 06:39:38;;;;;;;8.18;5.72;;;3.20;99.90;;;;;;480048;245;27547;-73
2020/12/25 06:41:40;;;;;;;8.00;5.87;;;3.20;99.90;;;;;;480027;245;27535;-74
2020/12/25 06:43:41;;;;;;;9.45;6.20;;;3.10;99.90;;;;;;479256;241;27384;-75
2020/12/25 06:45:42;;;;;;;10.63;6.32;;;3.10;99.90;;;;;;477282;247;27536;-77
2020/12/25 06:47:43;;;;;;;7.80;6.47;;;3.10;99.90;;;;;;479768;241;27606;-75
2020/12/25 06:49:45;;;;;;;8.48;6.80;;;3.20;99.90;;;;;;479955;245;27538;-73
2020/12/25 06:51:46;;;;;;;12.85;6.90;;;3.20;99.90;;;;;;480202;245;27542;-73
2020/12/25 06:53:47;;;;;;;16.50;8.23;;;3.20;99.90;;;;;;480139;245;27546;-74
2020/12/25 06:55:48;;;;;;;10.50;7.20;;;3.10;99.90;;;;;;480165;245;27541;-75
2020/12/25 06:57:50;;;;;;;9.40;7.10;;;3.10;99.90;;;;;;480136;245;28048;-75
2020/12/25 06:59:51;;;;;;;9.00;6.78;;;3.10;99.90;;;;;;480034;245;28107;-74
2020/12/25 07:01:52;;;;;;;9.80;7.40;;;3.10;99.90;;;;;;479646;241;28881;-72
2020/12/25 07:03:53;;;;;;;8.60;6.75;;;3.10;99.90;;;;;;485901;241;28777;-75
2020/12/25 07:05:55;;;;;;;12.00;7.37;;;3.10;99.90;;;;;;492599;241;27484;-73
2020/12/25 07:07:56;;;;;;;13.35;7.03;;;3.10;99.90;;;;;;492698;241;27625;-74
2020/12/25 07:09:57;;;;;;;11.00;6.70;;;3.00;99.90;;;;;;492692;241;27488;-74
2020/12/25 07:11:58;;;;;;;9.68;6.93;;;3.00;99.90;;;;;;492595;241;27821;-74
2020/12/25 07:14:00;;;;;;;11.57;7.43;;;3.10;99.90;;;;;;491091;241;27494;-72
2020/12/25 07:16:01;;;;;;;10.57;8.10;;;3.00;99.90;;;;;;478082;247;27674;-73
2020/12/25 07:18:02;;;;;;;8.43;6.30;;;3.00;99.90;;;;;;482810;241;27518;-75
2020/12/25 07:20:03;;;;;;;12.13;8.40;;;3.00;99.90;;;;;;480584;241;27909;-77
2020/12/25 07:22:05;;;;;;;13.55;8.77;;;3.10;99.90;;;;;;478161;247;27958;-73
2020/12/25 07:24:06;;;;;;;9.48;6.75;;;3.10;99.90;;;;;;480506;241;28724;-74
2020/12/25 07:26:07;;;;;;;9.50;7.18;;;3.10;99.90;;;;;;478403;247;27897;-74
2020/12/25 07:28:08;;;;;;;8.30;6.65;;;3.10;99.90;;;;;;480521;241;27774;-71
2020/12/25 07:30:10;;;;;;;9.45;7.43;;;3.10;99.90;;;;;;478138;245;27367;-73
2020/12/25 07:32:11;;;;;;;11.95;8.35;;;3.10;99.90;;;;;;476470;249;27442;-74
2020/12/25 07:34:15;;;;;;;9.93;7.40;;;3.10;99.90;;;;;;476472;249;27441;-71
2020/12/25 07:36:13;;;;;;;12.25;7.50;;;3.10;99.90;;;;;;476317;249;27455;-72
2020/12/25 07:38:15;;;;;;;8.13;6.90;;;3.10;99.90;;;;;;476944;241;28085;-72
2020/12/25 07:40:16;;;;;;;11.10;7.50;;;3.10;99.90;;;;;;479336;247;27391;-71
2020/12/25 07:42:17;;;;;;;9.57;7.10;;;3.10;99.90;;;;;;480105;245;27539;-77
2020/12/25 07:44:18;;;;;;;12.10;8.52;;;3.10;99.90;;;;;;479960;245;27986;-74
2020/12/25 07:46:20;;;;;;;10.00;7.70;;;3.10;99.90;;;;;;480049;245;28006;-75
2020/12/25 07:48:21;;;;;;;11.65;7.60;;;3.10;99.90;;;;;;480025;245;27566;-74
2020/12/25 07:50:22;;;;;;;8.65;6.97;;;3.20;99.90;;;;;;479760;245;27447;-73
2020/12/25 07:52:24;;;;;;;9.75;7.43;;;3.20;99.90;;;;;;479906;245;27538;-74
2020/12/25 07:54:25;;;;;;;11.80;8.23;;;3.30;99.90;;;;;;479924;245;27768;-74
2020/12/25 07:56:26;;;;;;;10.60;7.40;;;3.30;99.90;;;;;;480088;245;27629;-74
2020/12/25 07:58:27;;;;;;;9.18;7.43;;;3.30;99.90;;;;;;480120;245;27549;-75
2020/12/25 08:00:29;;;;;;;11.30;7.28;;;3.30;99.90;;;;;;479454;241;27589;-75
2020/12/25 08:02:30;;;;;;;10.95;7.10;;;3.30;99.90;;;;;;480095;245;27907;-71
2020/12/25 08:04:31;;;;;;;8.40;6.65;;;3.30;99.90;;;;;;480057;245;28163;-72
2020/12/25 08:06:32;;;;;;;10.77;7.97;;;3.30;99.90;;;;;;480002;245;28109;-73
2020/12/25 08:08:34;;;;;;;11.02;7.12;;;3.30;99.90;;;;;;480095;245;27617;-73
2020/12/25 08:10:35;;;;;;;10.25;7.32;;;3.30;99.90;;;;;;482088;241;27443;-73
2020/12/25 08:12:36;;;;;;;9.68;7.03;;;3.30;99.90;;;;;;480876;241;27573;-72
2020/12/25 08:14:37;;;;;;;11.23;7.10;;;3.30;99.90;;;;;;483070;241;27544;-76
2020/12/25 08:16:39;;;;;;;8.88;7.10;;;3.30;99.90;;;;;;481566;241;27577;-74
2020/12/25 08:18:40;;;;;;;10.85;7.30;;;3.30;99.90;;;;;;472511;247;27441;-73
2020/12/25 08:20:41;;;;;;;9.82;6.70;;;3.30;99.90;;;;;;479787;241;27579;-73
2020/12/25 08:22:42;;;;;;;11.75;7.85;;;3.20;99.90;;;;;;482186;241;27494;-73
2020/12/25 08:24:47;;;;;;;8.32;6.90;;;3.20;99.90;;;;;;484489;241;28063;-74
2020/12/25 08:26:49;;;;;;;11.50;7.32;;;3.20;99.90;;;;;;485303;241;27469;-76
2020/12/25 08:28:49;;;;;;;10.07;6.82;;;3.10;99.90;;;;;;480853;241;27528;-75
2020/12/25 08:30:51;;;;;;;19.50;7.00;;;3.10;99.90;;;;;;486682;241;28064;-73
2020/12/25 08:32:53;;;;;;;9.32;7.30;;;3.20;99.90;;;;;;478062;241;27455;-73
2020/12/25 08:34:54;;;;;;;8.35;6.75;;;3.20;99.90;;;;;;476432;249;27438;-75
2020/12/25 08:36:55;;;;;;;11.32;8.25;;;3.20;99.90;;;;;;477663;247;28724;-73
2020/12/25 08:38:57;;;;;;;9.18;7.10;;;3.20;99.90;;;;;;488385;241;27506;-76
2020/12/25 08:40:58;;;;;;;8.82;6.90;;;3.20;99.90;;;;;;488042;241;27450;-75
2020/12/25 08:42:59;;;;;;;11.85;7.80;;;3.10;99.90;;;;;;483222;241;27933;-72
2020/12/25 08:45:00;;;;;;;8.50;7.10;;;3.10;99.90;;;;;;482237;241;27971;-72
2020/12/25 08:47:02;;;;;;;8.00;7.20;;;3.00;99.90;;;;;;480328;245;28557;-73
2020/12/25 08:49:03;;;;;;;10.70;7.07;;;3.00;99.90;;;;;;480244;245;27546;-74
2020/12/25 08:51:04;;;;;;;8.95;7.25;;;3.00;99.90;;;;;;480083;245;27570;-75
2020/12/25 08:53:05;;;;;;;10.25;7.12;;;3.00;99.90;;;;;;476535;249;27399;-72
2020/12/25 08:55:07;;;;;;;8.35;6.60;;;3.00;99.90;;;;;;476547;249;27430;-72
2020/12/25 08:57:08;;;;;;;8.98;6.72;;;3.00;99.90;;;;;;480794;241;27382;-73
2020/12/25 08:59:09;;;;;;;13.57;7.30;;;3.10;99.90;;;;;;482114;241;27496;-74
2020/12/25 09:01:11;;;;;;;9.13;7.62;;;3.10;99.90;;;;;;479501;246;28067;-73
2020/12/25 09:03:12;;;;;;;10.80;6.87;;;2.90;99.90;;;;;;475039;247;28042;-75
2020/12/25 09:05:14;;;;;;;16.83;6.93;;;2.90;99.90;;;;;;471848;252;28048;-71
2020/12/25 09:07:15;;;;;;;10.70;8.15;;;3.00;99.90;;;;;;471804;252;27589;-74
2020/12/25 09:09:16;;;;;;;11.25;7.50;;;3.10;99.90;;;;;;471951;252;27466;-73
2020/12/25 09:11:17;;;;;;;9.25;6.93;;;3.00;99.90;;;;;;471868;252;27573;-72
2020/12/25 09:13:19;;;;;;;7.65;6.10;;;3.00;99.90;;;;;;471844;252;27645;-71
2020/12/25 09:15:20;;;;;;;8.88;6.93;;;3.10;99.90;;;;;;471999;252;27515;-71
2020/12/25 09:17:21;;;;;;;8.63;7.30;;;3.10;99.90;;;;;;471946;243;27492;-74
2020/12/25 09:19:22;;;;;;;8.30;6.15;;;3.20;99.90;;;;;;474116;247;27546;-73
2020/12/25 09:21:25;;;;;;;9.90;6.10;;;3.20;99.90;;;;;;471897;249;27555;-71
2020/12/25 09:23:25;;;;;;;9.80;6.62;;;3.20;99.90;;;;;;471712;249;28287;-74
2020/12/25 09:25:26;;;;;;;9.27;6.90;;;3.20;99.90;;;;;;471971;249;28061;-74
2020/12/25 09:27:27;;;;;;;9.00;7.00;;;3.20;99.90;;;;;;471982;249;28018;-72
2020/12/25 09:29:29;;;;;;;7.75;6.65;;;3.10;99.90;;;;;;471957;249;27925;-72
2020/12/25 09:31:30;;;;;;;8.18;6.55;;;3.00;99.90;;;;;;471984;249;27435;-71
2020/12/25 09:33:31;;;;;;;9.88;6.68;;;3.00;99.90;;;;;;472002;249;27450;-71
2020/12/25 09:35:32;;;;;;;8.85;7.15;;;3.10;99.90;;;;;;471989;249;27498;-74
2020/12/25 09:37:34;;;;;;;9.73;6.72;;;3.10;99.90;;;;;;472004;249;27546;-78
2020/12/25 09:39:35;;;;;;;7.93;6.47;;;3.10;99.90;;;;;;471988;249;27629;-71
2020/12/25 09:41:36;;;;;;;10.63;6.50;;;3.10;99.90;;;;;;471923;249;27590;-71
2020/12/25 09:43:37;;;;;;;8.70;7.15;;;3.10;99.90;;;;;;472013;249;27519;-71
2020/12/25 09:45:39;;;;;;;10.75;6.65;;;3.10;99.90;;;;;;471964;249;27485;-72
2020/12/25 09:47:40;;;;;;;9.50;7.40;;;3.30;99.90;;;;;;471993;249;27587;-75
2020/12/25 09:49:41;;;;;;;12.48;7.30;;;3.30;99.90;;;;;;471996;249;27898;-72
2020/12/25 09:51:42;;;;;;;10.32;6.80;;;3.10;99.90;;;;;;471948;249;28138;-73
2020/12/25 09:53:44;;;;;;;8.25;7.15;;;3.10;99.90;;;;;;472029;249;27946;-72
2020/12/25 09:55:48;;;;;;;9.40;6.65;;;3.20;99.90;;;;;;472006;249;27941;-72
2020/12/25 09:57:46;;;;;;;7.85;5.95;;;3.30;99.90;;;;;;471957;249;27426;-71
2020/12/25 09:59:48;;;;;;;7.10;6.40;;;3.30;99.90;;;;;;472109;249;27450;-71
2020/12/25 10:01:49;;;;;;;9.50;6.10;;;3.40;99.90;;;;;;472118;249;27465;-80
2020/12/25 10:03:50;;;;;;;6.60;5.82;;;3.40;99.90;;;;;;472166;249;27422;-72
2020/12/25 10:05:51;;;;;;;7.97;5.90;;;3.40;99.90;;;;;;472170;249;27471;-73
2020/12/25 10:07:52;;;;;;;7.57;5.75;;;3.50;99.90;;;;;;472123;249;27490;-72
2020/12/25 10:09:54;;;;;;;8.05;6.12;;;3.50;99.90;;;;;;472205;249;27463;-71
2020/12/25 10:11:55;;;;;;;6.70;5.97;;;3.50;99.90;;;;;;472098;249;27567;-73
2020/12/25 10:13:56;;;;;;;6.95;5.97;;;3.40;99.90;;;;;;472093;249;27518;-71
2020/12/25 10:15:57;;;;;;;10.77;6.72;;;3.50;99.90;;;;;;472112;249;27458;-72
2020/12/25 10:17:59;;;;;;;8.35;6.28;;;3.50;99.90;;;;;;472017;252;28207;-75
2020/12/25 10:20:00;;;;;;;9.55;6.10;;;3.40;99.90;;;;;;472053;249;27865;-71
2020/12/25 10:22:01;;;;;;;7.60;5.15;;;3.60;99.90;;;;;;471996;249;27948;-74
2020/12/25 10:24:02;;;;;;;7.75;5.60;;;3.70;99.90;;;;;;471934;252;27664;-72
2020/12/25 10:26:04;;;;;;;7.62;6.10;;;3.40;99.90;;;;;;471968;249;27641;-72
2020/12/25 10:28:05;;;;;;;7.35;5.62;;;3.40;99.90;;;;;;471923;249;27468;-74
2020/12/25 10:30:06;;;;;;;6.90;4.80;;;3.40;99.90;;;;;;471935;249;27557;-71
2020/12/25 10:32:07;;;;;;;5.30;4.80;;;3.30;99.90;;;;;;471948;249;27829;-74
2020/12/25 10:34:09;;;;;;;8.32;5.20;;;3.40;99.90;;;;;;471966;249;27415;-72
2020/12/25 10:36:10;;;;;;;6.50;4.97;;;3.40;99.90;;;;;;472016;249;27495;-72
2020/12/25 10:38:11;;;;;;;5.32;4.28;;;3.50;99.90;;;;;;472009;249;27554;-72